sensor_id;sensor_type;location;lat;lon;timestamp;pressure;altitude;pressure_sealevel;temperature;humidity
31183;BME280;17813;0.000;0.000;2022-10-22T00:02:26;98971.25;;;12.67;94.28
31183;BME280;17813;0.000;0.000;2022-10-22T00:04:54;98962.53;;;12.65;94.15
31183;BME280;17813;0.000;0.000;2022-10-22T00:07:24;98969.06;;;12.61;94.07
31183;BME280;17813;0.000;0.000;2022-10-22T00:09:52;98979.94;;;12.58;94.19
31183;BME280;17813;0.000;0.000;2022-10-22T00:12:19;98982.97;;;12.53;94.33
31183;BME280;17813;0.000;0.000;2022-10-22T00:14:48;98985.84;;;12.50;94.46
31183;BME280;17813;0.000;0.000;2022-10-22T00:17:15;98982.13;;;12.53;94.38
31183;BME280;17813;0.000;0.000;2022-10-22T00:19:43;98986.34;;;12.55;94.52
31183;BME280;17813;0.000;0.000;2022-10-22T00:22:10;98991.44;;;12.59;94.59
31183;BME280;17813;0.000;0.000;2022-10-22T00:24:38;98995.66;;;12.61;94.43
31183;BME280;17813;0.000;0.000;2022-10-22T00:27:07;98989.25;;;12.64;94.51
31183;BME280;17813;0.000;0.000;2022-10-22T00:29:35;98993.50;;;12.66;94.54
31183;BME280;17813;0.000;0.000;2022-10-22T00:32:03;98995.06;;;12.69;94.33
31183;BME280;17813;0.000;0.000;2022-10-22T00:34:32;98995.91;;;12.69;94.28
31183;BME280;17813;0.000;0.000;2022-10-22T00:36:59;99000.03;;;12.73;94.32
31183;BME280;17813;0.000;0.000;2022-10-22T00:39:27;98999.19;;;12.73;94.19
31183;BME280;17813;0.000;0.000;2022-10-22T00:41:56;98992.06;;;12.73;94.05
31183;BME280;17813;0.000;0.000;2022-10-22T00:47:38;99007.53;;;12.68;94.21
31183;BME280;17813;0.000;0.000;2022-10-22T00:53:12;99004.25;;;12.65;94.41
31183;BME280;17813;0.000;0.000;2022-10-22T00:55:42;98996.16;;;12.66;94.45
31183;BME280;17813;0.000;0.000;2022-10-22T00:58:09;98994.09;;;12.70;94.30
31183;BME280;17813;0.000;0.000;2022-10-22T01:00:38;98991.56;;;12.68;94.32
31183;BME280;17813;0.000;0.000;2022-10-22T01:03:06;98995.91;;;12.69;94.48
31183;BME280;17813;0.000;0.000;2022-10-22T01:05:40;98996.03;;;12.68;94.13
31183;BME280;17813;0.000;0.000;2022-10-22T01:08:10;99000.28;;;12.70;94.20
31183;BME280;17813;0.000;0.000;2022-10-22T01:16:42;98994.81;;;12.61;94.12
31183;BME280;17813;0.000;0.000;2022-10-22T01:27:51;99000.88;;;12.63;94.23
31183;BME280;17813;0.000;0.000;2022-10-22T01:30:20;98998.47;;;12.71;94.66
31183;BME280;17813;0.000;0.000;2022-10-22T01:32:54;99000.03;;;12.73;94.43
31183;BME280;17813;0.000;0.000;2022-10-22T01:35:30;98987.69;;;12.72;94.62
31183;BME280;17813;0.000;0.000;2022-10-22T01:38:00;99000.88;;;12.74;94.61
31183;BME280;17813;0.000;0.000;2022-10-22T01:40:30;98994.34;;;12.78;94.56
31183;BME280;17813;0.000;0.000;2022-10-22T01:43:05;98993.03;;;12.83;94.53
31183;BME280;17813;0.000;0.000;2022-10-22T01:45:41;98993.75;;;12.85;94.38
31183;BME280;17813;0.000;0.000;2022-10-22T01:48:25;98993.38;;;12.90;94.18
31183;BME280;17813;0.000;0.000;2022-10-22T01:51:21;98989.63;;;12.93;94.22
31183;BME280;17813;0.000;0.000;2022-10-22T02:02:57;98979.34;;;12.99;94.39
31183;BME280;17813;0.000;0.000;2022-10-22T02:05:31;98979.63;;;13.07;94.60
31183;BME280;17813;0.000;0.000;2022-10-22T02:08:09;98978.78;;;13.07;94.39
31183;BME280;17813;0.000;0.000;2022-10-22T02:10:38;98983.00;;;13.09;94.48
31183;BME280;17813;0.000;0.000;2022-10-22T02:13:24;98968.00;;;13.08;94.40
31183;BME280;17813;0.000;0.000;2022-10-22T02:15:52;98964.13;;;13.12;94.52
31183;BME280;17813;0.000;0.000;2022-10-22T02:18:25;98964.97;;;13.13;94.39
31183;BME280;17813;0.000;0.000;2022-10-22T02:20:54;98956.66;;;13.17;94.55
31183;BME280;17813;0.000;0.000;2022-10-22T02:23:22;98957.25;;;13.21;94.30
31183;BME280;17813;0.000;0.000;2022-10-22T02:25:59;98956.28;;;13.22;94.09
31183;BME280;17813;0.000;0.000;2022-10-22T02:29:17;98943.09;;;13.21;94.30
31183;BME280;17813;0.000;0.000;2022-10-22T02:31:28;98934.13;;;13.22;94.29
31183;BME280;17813;0.000;0.000;2022-10-22T02:34:00;98930.38;;;13.24;94.30
31183;BME280;17813;0.000;0.000;2022-10-22T02:36:31;98935.56;;;13.26;94.30
31183;BME280;17813;0.000;0.000;2022-10-22T02:39:06;98946.34;;;13.24;94.15
31183;BME280;17813;0.000;0.000;2022-10-22T02:41:35;98948.88;;;13.26;94.31
31183;BME280;17813;0.000;0.000;2022-10-22T02:44:09;98941.41;;;13.19;94.03
31183;BME280;17813;0.000;0.000;2022-10-22T02:46:37;98931.59;;;13.20;94.06
31183;BME280;17813;0.000;0.000;2022-10-22T02:49:05;98942.13;;;13.22;94.23
31183;BME280;17813;0.000;0.000;2022-10-22T02:51:32;98935.94;;;13.21;94.24
31183;BME280;17813;0.000;0.000;2022-10-22T02:53:59;98954.47;;;13.23;94.09
31183;BME280;17813;0.000;0.000;2022-10-22T02:56:26;98961.59;;;13.22;94.20
31183;BME280;17813;0.000;0.000;2022-10-22T02:58:55;98965.22;;;13.21;94.04
31183;BME280;17813;0.000;0.000;2022-10-22T03:01:22;98970.56;;;13.21;94.19
31183;BME280;17813;0.000;0.000;2022-10-22T03:03:49;98975.16;;;13.19;94.08
31183;BME280;17813;0.000;0.000;2022-10-22T03:06:17;98976.34;;;13.15;93.94
31183;BME280;17813;0.000;0.000;2022-10-22T03:08:44;98983.38;;;13.16;94.42
31183;BME280;17813;0.000;0.000;2022-10-22T03:11:10;98990.50;;;13.15;94.29
31183;BME280;17813;0.000;0.000;2022-10-22T03:13:38;98985.19;;;13.15;94.23
31183;BME280;17813;0.000;0.000;2022-10-22T03:16:05;98985.19;;;13.15;94.22
31183;BME280;17813;0.000;0.000;2022-10-22T03:18:32;98978.03;;;13.16;94.47
31183;BME280;17813;0.000;0.000;2022-10-22T03:21:40;98978.66;;;13.08;93.97
31183;BME280;17813;0.000;0.000;2022-10-22T03:24:17;98981.19;;;13.10;94.52
31183;BME280;17813;0.000;0.000;2022-10-22T03:26:50;98969.31;;;13.14;94.60
31183;BME280;17813;0.000;0.000;2022-10-22T03:29:19;98974.53;;;13.15;94.13
31183;BME280;17813;0.000;0.000;2022-10-22T03:31:47;98973.81;;;13.13;94.02
31183;BME280;17813;0.000;0.000;2022-10-22T03:34:14;98973.94;;;13.12;94.00
31183;BME280;17813;0.000;0.000;2022-10-22T03:36:41;98978.66;;;13.08;93.65
31183;BME280;17813;0.000;0.000;2022-10-22T03:39:11;98961.22;;;13.04;93.65
31183;BME280;17813;0.000;0.000;2022-10-22T03:41:39;98946.34;;;13.02;93.66
31183;BME280;17813;0.000;0.000;2022-10-22T03:44:06;98955.53;;;12.98;93.80
31183;BME280;17813;0.000;0.000;2022-10-22T03:46:33;98966.78;;;12.90;93.66
31183;BME280;17813;0.000;0.000;2022-10-22T03:49:01;98969.69;;;12.87;93.71
31183;BME280;17813;0.000;0.000;2022-10-22T03:51:28;98968.94;;;12.85;93.93
31183;BME280;17813;0.000;0.000;2022-10-22T03:53:56;98969.81;;;12.85;93.93
31183;BME280;17813;0.000;0.000;2022-10-22T03:56:23;98978.63;;;12.86;93.98
31183;BME280;17813;0.000;0.000;2022-10-22T03:58:50;98979.72;;;12.83;93.89
31183;BME280;17813;0.000;0.000;2022-10-22T04:01:17;98981.03;;;12.78;93.76
31183;BME280;17813;0.000;0.000;2022-10-22T04:03:44;98984.78;;;12.75;93.74
31183;BME280;17813;0.000;0.000;2022-10-22T04:06:15;98985.16;;;12.71;93.85
31183;BME280;17813;0.000;0.000;2022-10-22T04:08:44;98987.94;;;12.69;93.97
31183;BME280;17813;0.000;0.000;2022-10-22T04:11:12;99002.19;;;12.68;93.86
31183;BME280;17813;0.000;0.000;2022-10-22T04:13:40;99010.53;;;12.64;93.80
31183;BME280;17813;0.000;0.000;2022-10-22T04:16:16;99009.19;;;12.58;93.71
31183;BME280;17813;0.000;0.000;2022-10-22T04:18:44;99011.13;;;12.56;93.89
31183;BME280;17813;0.000;0.000;2022-10-22T04:21:14;99025.63;;;12.52;93.71
31183;BME280;17813;0.000;0.000;2022-10-22T04:23:46;99022.25;;;12.50;93.76
31183;BME280;17813;0.000;0.000;2022-10-22T04:26:14;99022.84;;;12.53;94.33
31183;BME280;17813;0.000;0.000;2022-10-22T04:28:42;99016.22;;;12.59;94.36
31183;BME280;17813;0.000;0.000;2022-10-22T04:31:10;99020.09;;;12.66;94.31
31183;BME280;17813;0.000;0.000;2022-10-22T04:33:38;99018.78;;;12.72;94.19
31183;BME280;17813;0.000;0.000;2022-10-22T04:36:09;99012.84;;;12.68;93.98
31183;BME280;17813;0.000;0.000;2022-10-22T04:38:38;99010.31;;;12.67;93.82
31183;BME280;17813;0.000;0.000;2022-10-22T04:41:17;99011.00;;;12.57;93.62
31183;BME280;17813;0.000;0.000;2022-10-22T04:43:46;99012.09;;;12.55;94.07
31183;BME280;17813;0.000;0.000;2022-10-22T04:46:15;99008.59;;;12.54;94.14
31183;BME280;17813;0.000;0.000;2022-10-22T04:48:44;99011.25;;;12.54;94.34
31183;BME280;17813;0.000;0.000;2022-10-22T04:51:14;99012.09;;;12.55;94.23
31183;BME280;17813;0.000;0.000;2022-10-22T04:53:43;99005.69;;;12.57;94.31
31183;BME280;17813;0.000;0.000;2022-10-22T04:56:16;99005.69;;;12.57;94.20
31183;BME280;17813;0.000;0.000;2022-10-22T04:58:48;99005.34;;;12.62;94.38
31183;BME280;17813;0.000;0.000;2022-10-22T05:01:17;99008.59;;;12.66;94.58
31183;BME280;17813;0.000;0.000;2022-10-22T05:03:45;99017.94;;;12.71;94.45
31183;BME280;17813;0.000;0.000;2022-10-22T05:06:13;99015.75;;;12.76;94.12
31183;BME280;17813;0.000;0.000;2022-10-22T05:08:40;99012.38;;;12.74;94.88
31183;BME280;17813;0.000;0.000;2022-10-22T05:11:18;99029.41;;;12.72;95.03
31183;BME280;17813;0.000;0.000;2022-10-22T05:13:46;99025.91;;;12.71;95.73
31183;BME280;17813;0.000;0.000;2022-10-22T05:16:13;99027.25;;;12.77;95.11
31183;BME280;17813;0.000;0.000;2022-10-22T05:18:42;99031.72;;;12.76;94.73
31183;BME280;17813;0.000;0.000;2022-10-22T05:21:15;99034.88;;;12.81;94.84
31183;BME280;17813;0.000;0.000;2022-10-22T05:23:44;99031.00;;;12.85;94.76
31183;BME280;17813;0.000;0.000;2022-10-22T05:26:13;99038.75;;;12.88;94.79
31183;BME280;17813;0.000;0.000;2022-10-22T05:28:40;99039.13;;;12.95;94.94
31183;BME280;17813;0.000;0.000;2022-10-22T05:31:10;99039.97;;;12.96;94.82
31183;BME280;17813;0.000;0.000;2022-10-22T05:33:39;99042.19;;;13.02;94.71
31183;BME280;17813;0.000;0.000;2022-10-22T05:36:08;99046.53;;;13.03;94.50
31183;BME280;17813;0.000;0.000;2022-10-22T05:38:36;99047.25;;;13.05;94.66
31183;BME280;17813;0.000;0.000;2022-10-22T05:41:08;99059.59;;;13.06;94.46
31183;BME280;17813;0.000;0.000;2022-10-22T05:43:36;99061.91;;;13.10;94.55
31183;BME280;17813;0.000;0.000;2022-10-22T05:46:05;99070.63;;;13.12;95.19
31183;BME280;17813;0.000;0.000;2022-10-22T05:48:33;99069.06;;;13.21;95.68
31183;BME280;17813;0.000;0.000;2022-10-22T05:51:06;99086.63;;;13.35;96.43
31183;BME280;17813;0.000;0.000;2022-10-22T05:53:35;99089.63;;;13.52;96.10
31183;BME280;17813;0.000;0.000;2022-10-22T05:56:05;99086.59;;;13.68;95.83
31183;BME280;17813;0.000;0.000;2022-10-22T05:58:33;99088.00;;;13.83;96.08
31183;BME280;17813;0.000;0.000;2022-10-22T06:01:02;99096.84;;;13.95;96.37
31183;BME280;17813;0.000;0.000;2022-10-22T06:03:29;99100.69;;;14.02;96.30
31183;BME280;17813;0.000;0.000;2022-10-22T06:06:03;99105.28;;;14.11;96.20
31183;BME280;17813;0.000;0.000;2022-10-22T06:08:30;99100.03;;;14.21;96.07
31183;BME280;17813;0.000;0.000;2022-10-22T06:10:57;99096.00;;;14.27;96.63
31183;BME280;17813;0.000;0.000;2022-10-22T06:13:25;99096.72;;;14.29;97.03
31183;BME280;17813;0.000;0.000;2022-10-22T06:15:52;99108.00;;;14.32;97.17
31183;BME280;17813;0.000;0.000;2022-10-22T06:18:19;99113.19;;;14.34;96.67
31183;BME280;17813;0.000;0.000;2022-10-22T06:20:46;99125.31;;;14.38;96.67
31183;BME280;17813;0.000;0.000;2022-10-22T06:23:13;99138.75;;;14.36;96.69
31183;BME280;17813;0.000;0.000;2022-10-22T06:25:41;99143.13;;;14.37;96.38
31183;BME280;17813;0.000;0.000;2022-10-22T06:28:09;99141.19;;;14.39;96.20
31183;BME280;17813;0.000;0.000;2022-10-22T06:30:38;99150.16;;;14.38;95.80
31183;BME280;17813;0.000;0.000;2022-10-22T06:33:06;99143.00;;;14.39;96.21
31183;BME280;17813;0.000;0.000;2022-10-22T06:35:34;99153.69;;;14.39;96.10
31183;BME280;17813;0.000;0.000;2022-10-22T06:38:02;99157.06;;;14.41;96.16
31183;BME280;17813;0.000;0.000;2022-10-22T06:40:30;99158.78;;;14.42;95.85
31183;BME280;17813;0.000;0.000;2022-10-22T06:42:59;99155.38;;;14.40;96.03
31183;BME280;17813;0.000;0.000;2022-10-22T06:45:25;99153.44;;;14.42;96.08
31183;BME280;17813;0.000;0.000;2022-10-22T06:47:53;99155.25;;;14.41;95.55
31183;BME280;17813;0.000;0.000;2022-10-22T06:50:21;99155.16;;;14.43;95.67
31183;BME280;17813;0.000;0.000;2022-10-22T06:52:49;99170.19;;;14.44;95.53
31183;BME280;17813;0.000;0.000;2022-10-22T06:55:17;99174.03;;;14.40;95.42
31183;BME280;17813;0.000;0.000;2022-10-22T06:57:44;99175.72;;;14.41;95.23
31183;BME280;17813;0.000;0.000;2022-10-22T07:00:11;99188.34;;;14.39;95.20
31183;BME280;17813;0.000;0.000;2022-10-22T07:02:38;99186.66;;;14.38;95.13
31183;BME280;17813;0.000;0.000;2022-10-22T07:05:06;99188.47;;;14.37;95.09
31183;BME280;17813;0.000;0.000;2022-10-22T07:07:33;99188.72;;;14.34;95.12
31183;BME280;17813;0.000;0.000;2022-10-22T07:10:00;99196.84;;;14.33;94.94
31183;BME280;17813;0.000;0.000;2022-10-22T07:12:28;99203.53;;;14.27;94.88
31183;BME280;17813;0.000;0.000;2022-10-22T07:14:54;99213.72;;;14.22;94.93
31183;BME280;17813;0.000;0.000;2022-10-22T07:17:22;99215.94;;;14.17;94.99
31183;BME280;17813;0.000;0.000;2022-10-22T07:19:49;99211.31;;;14.08;95.13
31183;BME280;17813;0.000;0.000;2022-10-22T07:22:17;99211.69;;;14.03;95.77
31183;BME280;17813;0.000;0.000;2022-10-22T07:24:44;99216.31;;;14.01;95.74
31183;BME280;17813;0.000;0.000;2022-10-22T07:27:12;99223.22;;;14.04;95.78
31183;BME280;17813;0.000;0.000;2022-10-22T07:29:39;99217.03;;;14.03;95.79
31183;BME280;17813;0.000;0.000;2022-10-22T07:32:06;99217.75;;;14.05;95.86
31183;BME280;17813;0.000;0.000;2022-10-22T07:34:33;99222.50;;;14.02;95.78
31183;BME280;17813;0.000;0.000;2022-10-22T07:37:01;99217.75;;;14.05;95.73
31183;BME280;17813;0.000;0.000;2022-10-22T07:39:30;99208.66;;;14.08;95.79
31183;BME280;17813;0.000;0.000;2022-10-22T07:41:58;99204.31;;;14.07;95.70
31183;BME280;17813;0.000;0.000;2022-10-22T07:44:25;99205.16;;;14.07;96.07
31183;BME280;17813;0.000;0.000;2022-10-22T07:46:53;99210.38;;;14.09;95.77
31183;BME280;17813;0.000;0.000;2022-10-22T07:49:19;99218.00;;;14.13;95.61
31183;BME280;17813;0.000;0.000;2022-10-22T07:51:46;99217.03;;;14.14;95.52
31183;BME280;17813;0.000;0.000;2022-10-22T07:54:14;99235.31;;;14.19;95.35
31183;BME280;17813;0.000;0.000;2022-10-22T07:56:41;99234.09;;;14.23;95.20
31183;BME280;17813;0.000;0.000;2022-10-22T07:59:09;99237.25;;;14.28;95.27
31183;BME280;17813;0.000;0.000;2022-10-22T08:01:38;99234.69;;;14.27;94.69
31183;BME280;17813;0.000;0.000;2022-10-22T08:04:05;99236.16;;;14.31;94.74
31183;BME280;17813;0.000;0.000;2022-10-22T08:06:36;99229.13;;;14.30;94.70
31183;BME280;17813;0.000;0.000;2022-10-22T08:09:04;99233.22;;;14.34;94.90
31183;BME280;17813;0.000;0.000;2022-10-22T08:11:31;99233.81;;;14.37;94.68
31183;BME280;17813;0.000;0.000;2022-10-22T08:14:01;99224.13;;;14.36;94.47
31183;BME280;17813;0.000;0.000;2022-10-22T08:16:28;99234.44;;;14.41;94.90
31183;BME280;17813;0.000;0.000;2022-10-22T08:18:56;99227.19;;;14.43;94.70
31183;BME280;17813;0.000;0.000;2022-10-22T08:21:23;99237.84;;;14.43;95.17
31183;BME280;17813;0.000;0.000;2022-10-22T08:23:50;99240.03;;;14.49;95.00
31183;BME280;17813;0.000;0.000;2022-10-22T08:26:17;99250.91;;;14.57;94.88
31183;BME280;17813;0.000;0.000;2022-10-22T08:28:45;99258.16;;;14.66;94.46
31183;BME280;17813;0.000;0.000;2022-10-22T08:31:15;99249.03;;;14.80;94.42
31183;BME280;17813;0.000;0.000;2022-10-22T08:33:42;99239.88;;;14.94;93.97
31183;BME280;17813;0.000;0.000;2022-10-22T08:36:10;99224.66;;;15.05;93.31
31183;BME280;17813;0.000;0.000;2022-10-22T08:38:37;99226.88;;;15.21;93.48
31183;BME280;17813;0.000;0.000;2022-10-22T08:41:16;99222.88;;;15.36;92.99
31183;BME280;17813;0.000;0.000;2022-10-22T08:49:28;99197.13;;;15.56;91.30
31183;BME280;17813;0.000;0.000;2022-10-22T08:51:57;99209.19;;;15.62;91.60
31183;BME280;17813;0.000;0.000;2022-10-22T09:08:22;99203.41;;;15.97;89.94
31183;BME280;17813;0.000;0.000;2022-10-22T09:11:12;99220.03;;;16.00;89.39
31183;BME280;17813;0.000;0.000;2022-10-22T09:13:42;99269.50;;;16.16;90.33
31183;BME280;17813;0.000;0.000;2022-10-22T09:24:41;99273.09;;;16.35;88.20
31183;BME280;17813;0.000;0.000;2022-10-22T09:27:28;99283.28;;;16.51;87.30
31183;BME280;17813;0.000;0.000;2022-10-22T09:29:55;99257.88;;;16.86;86.54
31183;BME280;17813;0.000;0.000;2022-10-22T09:32:23;99249.00;;;17.14;83.41
31183;BME280;17813;0.000;0.000;2022-10-22T09:34:55;99257.09;;;17.80;82.88
31183;BME280;17813;0.000;0.000;2022-10-22T09:37:28;99261.59;;;18.81;79.85
31183;BME280;17813;0.000;0.000;2022-10-22T09:39:56;99252.91;;;19.58;75.90
31183;BME280;17813;0.000;0.000;2022-10-22T09:42:29;99253.03;;;20.09;75.18
31183;BME280;17813;0.000;0.000;2022-10-22T09:44:59;99243.97;;;21.67;71.91
31183;BME280;17813;0.000;0.000;2022-10-22T09:50:26;99251.09;;;23.39;59.69
31183;BME280;17813;0.000;0.000;2022-10-22T09:52:59;99246.06;;;24.77;58.94
31183;BME280;17813;0.000;0.000;2022-10-22T09:55:27;99241.31;;;25.92;57.87
31183;BME280;17813;0.000;0.000;2022-10-22T09:57:57;99255.59;;;26.70;54.51
31183;BME280;17813;0.000;0.000;2022-10-22T10:00:26;99261.63;;;27.33;53.86
31183;BME280;17813;0.000;0.000;2022-10-22T10:02:57;99267.34;;;27.78;51.64
31183;BME280;17813;0.000;0.000;2022-10-22T10:05:33;99262.88;;;28.10;49.19
31183;BME280;17813;0.000;0.000;2022-10-22T10:08:26;99263.75;;;27.97;46.89
31183;BME280;17813;0.000;0.000;2022-10-22T10:11:12;99255.72;;;28.35;48.31
31183;BME280;17813;0.000;0.000;2022-10-22T10:13:46;99258.38;;;28.62;46.15
31183;BME280;17813;0.000;0.000;2022-10-22T10:22:45;99252.28;;;29.11;44.13
31183;BME280;17813;0.000;0.000;2022-10-22T10:31:05;99247.41;;;29.76;43.64
31183;BME280;17813;0.000;0.000;2022-10-22T10:33:56;99252.22;;;30.42;43.27
31183;BME280;17813;0.000;0.000;2022-10-22T10:42:07;99254.25;;;31.13;40.79
31183;BME280;17813;0.000;0.000;2022-10-22T10:50:40;99259.19;;;30.75;39.00
31183;BME280;17813;0.000;0.000;2022-10-22T10:55:58;99268.31;;;30.87;38.52
31183;BME280;17813;0.000;0.000;2022-10-22T11:06:30;99274.56;;;30.39;37.96
31183;BME280;17813;0.000;0.000;2022-10-22T11:09:22;99270.03;;;29.58;37.82
31183;BME280;17813;0.000;0.000;2022-10-22T11:11:59;99273.94;;;29.06;39.59
31183;BME280;17813;0.000;0.000;2022-10-22T11:14:37;99277.94;;;29.03;39.17
31183;BME280;17813;0.000;0.000;2022-10-22T11:17:21;99281.00;;;28.75;39.99
31183;BME280;17813;0.000;0.000;2022-10-22T11:20:17;99279.03;;;28.11;40.93
31183;BME280;17813;0.000;0.000;2022-10-22T11:22:55;99286.13;;;27.33;42.99
31183;BME280;17813;0.000;0.000;2022-10-22T11:25:48;99290.91;;;26.64;45.10
31183;BME280;17813;0.000;0.000;2022-10-22T11:28:22;99291.53;;;26.24;45.37
31183;BME280;17813;0.000;0.000;2022-10-22T11:31:02;99283.47;;;25.82;45.20
31183;BME280;17813;0.000;0.000;2022-10-22T11:33:57;99279.16;;;25.23;46.01
31183;BME280;17813;0.000;0.000;2022-10-22T11:36:26;99288.28;;;24.65;47.17
31183;BME280;17813;0.000;0.000;2022-10-22T11:38:55;99283.53;;;24.52;47.80
31183;BME280;17813;0.000;0.000;2022-10-22T11:41:26;99288.09;;;24.22;47.73
31183;BME280;17813;0.000;0.000;2022-10-22T11:44:44;99290.19;;;23.83;48.70
31183;BME280;17813;0.000;0.000;2022-10-22T11:47:24;99301.09;;;23.52;49.64
31183;BME280;17813;0.000;0.000;2022-10-22T11:54:56;99296.97;;;23.10;49.39
31183;BME280;17813;0.000;0.000;2022-10-22T11:57:36;99298.69;;;22.80;51.11
31183;BME280;17813;0.000;0.000;2022-10-22T12:00:41;99295.56;;;22.52;51.56
31183;BME280;17813;0.000;0.000;2022-10-22T12:11:45;99300.97;;;22.52;51.00
31183;BME280;17813;0.000;0.000;2022-10-22T12:16:50;99306.66;;;22.18;52.28
31183;BME280;17813;0.000;0.000;2022-10-22T12:19:24;99303.47;;;21.98;51.17
31183;BME280;17813;0.000;0.000;2022-10-22T12:21:58;99300.78;;;21.98;52.03
31183;BME280;17813;0.000;0.000;2022-10-22T12:24:33;99299.25;;;21.96;51.83
31183;BME280;17813;0.000;0.000;2022-10-22T12:27:01;99301.09;;;21.95;51.91
31183;BME280;17813;0.000;0.000;2022-10-22T12:29:31;99297.56;;;21.95;52.41
31183;BME280;17813;0.000;0.000;2022-10-22T12:32:02;99293.69;;;21.97;53.21
31183;BME280;17813;0.000;0.000;2022-10-22T12:34:30;99293.03;;;22.03;52.64
31183;BME280;17813;0.000;0.000;2022-10-22T12:36:57;99302.97;;;21.95;52.07
31183;BME280;17813;0.000;0.000;2022-10-22T12:39:27;99292.19;;;21.87;52.59
31183;BME280;17813;0.000;0.000;2022-10-22T12:41:56;99296.25;;;21.66;52.47
31183;BME280;17813;0.000;0.000;2022-10-22T12:44:23;99297.44;;;21.47;53.26
31183;BME280;17813;0.000;0.000;2022-10-22T12:46:53;99292.72;;;21.41;52.77
31183;BME280;17813;0.000;0.000;2022-10-22T12:49:36;99295.75;;;21.22;53.15
31183;BME280;17813;0.000;0.000;2022-10-22T12:52:17;99293.50;;;21.01;52.67
31183;BME280;17813;0.000;0.000;2022-10-22T12:54:49;99297.00;;;20.85;53.18
31183;BME280;17813;0.000;0.000;2022-10-22T12:57:19;99296.16;;;20.85;53.57
31183;BME280;17813;0.000;0.000;2022-10-22T12:59:49;99297.66;;;20.88;53.58
31183;BME280;17813;0.000;0.000;2022-10-22T13:02:21;99302.56;;;20.92;53.39
31183;BME280;17813;0.000;0.000;2022-10-22T13:08:00;99289.41;;;20.89;54.37
31183;BME280;17813;0.000;0.000;2022-10-22T13:10:36;99294.63;;;20.82;54.08
31183;BME280;17813;0.000;0.000;2022-10-22T13:13:27;99300.03;;;20.91;54.33
31183;BME280;17813;0.000;0.000;2022-10-22T13:15:54;99303.16;;;20.78;54.16
31183;BME280;17813;0.000;0.000;2022-10-22T13:18:23;99304.50;;;20.74;53.97
31183;BME280;17813;0.000;0.000;2022-10-22T13:21:00;99301.03;;;20.81;54.22
31183;BME280;17813;0.000;0.000;2022-10-22T13:23:31;99305.00;;;20.69;54.58
31183;BME280;17813;0.000;0.000;2022-10-22T13:26:03;99303.97;;;20.70;54.67
31183;BME280;17813;0.000;0.000;2022-10-22T13:28:37;99302.97;;;20.71;55.17
31183;BME280;17813;0.000;0.000;2022-10-22T13:31:23;99308.38;;;20.71;54.93
31183;BME280;17813;0.000;0.000;2022-10-22T13:34:03;99305.03;;;20.77;55.27
31183;BME280;17813;0.000;0.000;2022-10-22T13:36:32;99304.50;;;20.74;55.24
31183;BME280;17813;0.000;0.000;2022-10-22T13:38:59;99305.88;;;20.78;54.78
31183;BME280;17813;0.000;0.000;2022-10-22T13:41:30;99312.66;;;20.82;54.13
31183;BME280;17813;0.000;0.000;2022-10-22T13:44:02;99309.56;;;20.77;53.41
31183;BME280;17813;0.000;0.000;2022-10-22T13:46:31;99311.63;;;20.83;53.85
31183;BME280;17813;0.000;0.000;2022-10-22T13:48:57;99311.16;;;20.88;53.76
31183;BME280;17813;0.000;0.000;2022-10-22T13:51:34;99321.59;;;20.91;53.38
31183;BME280;17813;0.000;0.000;2022-10-22T13:54:02;99310.69;;;20.58;53.31
31183;BME280;17813;0.000;0.000;2022-10-22T13:56:36;99310.31;;;20.53;54.27
31183;BME280;17813;0.000;0.000;2022-10-22T13:59:04;99310.16;;;20.54;54.29
31183;BME280;17813;0.000;0.000;2022-10-22T14:01:31;99305.94;;;20.52;54.42
31183;BME280;17813;0.000;0.000;2022-10-22T14:03:59;99309.63;;;20.51;53.96
31183;BME280;17813;0.000;0.000;2022-10-22T14:06:31;99307.78;;;20.51;53.91
31183;BME280;17813;0.000;0.000;2022-10-22T14:09:06;99309.13;;;20.47;54.02
31183;BME280;17813;0.000;0.000;2022-10-22T14:11:37;99312.50;;;20.49;54.29
31183;BME280;17813;0.000;0.000;2022-10-22T14:14:04;99306.63;;;20.28;54.86
31183;BME280;17813;0.000;0.000;2022-10-22T14:16:34;99309.44;;;20.18;54.81
31183;BME280;17813;0.000;0.000;2022-10-22T14:19:03;99313.25;;;20.08;55.60
31183;BME280;17813;0.000;0.000;2022-10-22T14:21:36;99311.72;;;20.05;55.75
31183;BME280;17813;0.000;0.000;2022-10-22T14:24:03;99317.91;;;19.98;55.99
31183;BME280;17813;0.000;0.000;2022-10-22T14:26:32;99317.00;;;19.89;56.05
31183;BME280;17813;0.000;0.000;2022-10-22T14:29:01;99316.53;;;19.94;56.17
31183;BME280;17813;0.000;0.000;2022-10-22T14:31:28;99315.91;;;20.00;56.24
31183;BME280;17813;0.000;0.000;2022-10-22T14:33:56;99311.88;;;20.04;56.12
31183;BME280;17813;0.000;0.000;2022-10-22T14:36:27;99319.53;;;19.90;56.68
31183;BME280;17813;0.000;0.000;2022-10-22T14:38:53;99320.31;;;19.83;56.96
31183;BME280;17813;0.000;0.000;2022-10-22T14:41:22;99324.66;;;19.76;57.30
31183;BME280;17813;0.000;0.000;2022-10-22T14:43:51;99328.13;;;19.68;57.26
31183;BME280;17813;0.000;0.000;2022-10-22T14:46:19;99337.50;;;19.64;57.66
31183;BME280;17813;0.000;0.000;2022-10-22T14:48:46;99335.75;;;19.55;58.40
31183;BME280;17813;0.000;0.000;2022-10-22T14:51:18;99338.50;;;19.45;57.99
31183;BME280;17813;0.000;0.000;2022-10-22T14:53:46;99338.78;;;19.42;58.05
31183;BME280;17813;0.000;0.000;2022-10-22T14:56:15;99347.78;;;19.33;58.48
31183;BME280;17813;0.000;0.000;2022-10-22T14:58:43;99346.72;;;19.26;58.97
31183;BME280;17813;0.000;0.000;2022-10-22T15:01:11;99341.72;;;19.13;59.19
31183;BME280;17813;0.000;0.000;2022-10-22T15:03:38;99340.09;;;19.03;59.48
31183;BME280;17813;0.000;0.000;2022-10-22T15:06:06;99348.44;;;19.00;59.66
31183;BME280;17813;0.000;0.000;2022-10-22T15:08:33;99348.91;;;18.95;59.61
31183;BME280;17813;0.000;0.000;2022-10-22T15:11:06;99353.88;;;18.90;59.49
31183;BME280;17813;0.000;0.000;2022-10-22T15:13:34;99349.25;;;18.82;59.85
31183;BME280;17813;0.000;0.000;2022-10-22T15:16:08;99357.22;;;18.74;60.47
31183;BME280;17813;0.000;0.000;2022-10-22T15:18:35;99353.44;;;18.67;60.91
31183;BME280;17813;0.000;0.000;2022-10-22T15:21:05;99356.16;;;18.57;60.85
31183;BME280;17813;0.000;0.000;2022-10-22T15:23:34;99350.38;;;18.52;61.05
31183;BME280;17813;0.000;0.000;2022-10-22T15:26:01;99350.41;;;18.43;61.36